sensor_id;sensor_type;location;lat;lon;timestamp;pressure;altitude;pressure_sealevel;temperature;humidity
75867;BME280;64513;56.258;43.980;2022-11-04T00:01:40;99535.06;;;0.84;80.92
75867;BME280;64513;56.258;43.980;2022-11-04T00:04:06;99535.22;;;0.89;81.00
75867;BME280;64513;56.258;43.980;2022-11-04T00:06:32;99541.63;;;1.05;80.55
75867;BME280;64513;56.258;43.980;2022-11-04T00:08:58;99541.19;;;1.08;80.60
75867;BME280;64513;56.258;43.980;2022-11-04T00:11:25;99538.38;;;1.10;80.23
75867;BME280;64513;56.258;43.980;2022-11-04T00:13:51;99538.06;;;0.99;80.30
75867;BME280;64513;56.258;43.980;2022-11-04T00:16:16;99530.16;;;0.94;79.90
75867;BME280;64513;56.258;43.980;2022-11-04T00:18:42;99535.63;;;1.04;79.82
75867;BME280;64513;56.258;43.980;2022-11-04T00:21:07;99535.19;;;1.08;80.05
75867;BME280;64513;56.258;43.980;2022-11-04T00:23:32;99538.44;;;1.03;79.58
75867;BME280;64513;56.258;43.980;2022-11-04T00:25:58;99538.38;;;1.10;79.42
75867;BME280;64513;56.258;43.980;2022-11-04T00:28:23;99541.63;;;1.05;79.70
75867;BME280;64513;56.258;43.980;2022-11-04T00:30:52;99546.03;;;1.04;79.89
75867;BME280;64513;56.258;43.980;2022-11-04T00:33:18;99538.44;;;1.03;79.56
75867;BME280;64513;56.258;43.980;2022-11-04T00:35:50;99539.25;;;1.03;79.34
75867;BME280;64513;56.258;43.980;2022-11-04T00:38:16;99537.22;;;1.05;79.33
75867;BME280;64513;56.258;43.980;2022-11-04T00:40:42;99541.66;;;0.87;79.96
75867;BME280;64513;56.258;43.980;2022-11-04T00:43:07;99537.22;;;0.87;79.34
75867;BME280;64513;56.258;43.980;2022-11-04T00:45:33;99543.09;;;0.83;79.55
75867;BME280;64513;56.258;43.980;2022-11-04T00:47:58;99539.84;;;0.87;79.15
75867;BME280;64513;56.258;43.980;2022-11-04T00:50:24;99538.09;;;0.81;79.04
75867;BME280;64513;56.258;43.980;2022-11-04T00:52:49;99538.03;;;0.88;78.42
75867;BME280;64513;56.258;43.980;2022-11-04T00:55:15;99537.50;;;0.97;78.48
75867;BME280;64513;56.258;43.980;2022-11-04T00:57:40;99540.69;;;0.99;78.28
75867;BME280;64513;56.258;43.980;2022-11-04T01:00:06;99536.28;;;1.00;78.13
75867;BME280;64513;56.258;43.980;2022-11-04T01:02:32;99534.47;;;1.00;78.63
75867;BME280;64513;56.258;43.980;2022-11-04T01:04:57;99539.09;;;0.80;79.21
75867;BME280;64513;56.258;43.980;2022-11-04T01:07:23;99536.50;;;0.80;79.74
75867;BME280;64513;56.258;43.980;2022-11-04T01:09:48;99541.59;;;0.75;79.87
75867;BME280;64513;56.258;43.980;2022-11-04T01:12:14;99538.47;;;0.66;79.90
75867;BME280;64513;56.258;43.980;2022-11-04T01:14:39;99538.41;;;0.73;80.07
75867;BME280;64513;56.258;43.980;2022-11-04T01:17:05;99540.34;;;0.59;80.10
75867;BME280;64513;56.258;43.980;2022-11-04T01:19:30;99539.03;;;0.50;79.94
75867;BME280;64513;56.258;43.980;2022-11-04T01:21:55;99535.06;;;0.48;79.78
75867;BME280;64513;56.258;43.980;2022-11-04T01:24:21;99541.06;;;0.48;80.00
75867;BME280;64513;56.258;43.980;2022-11-04T01:26:46;99541.84;;;0.49;80.15
75867;BME280;64513;56.258;43.980;2022-11-04T01:29:12;99545.03;;;0.51;80.19
75867;BME280;64513;56.258;43.980;2022-11-04T01:31:38;99540.84;;;0.50;80.30
75867;BME280;64513;56.258;43.980;2022-11-04T01:34:03;99540.25;;;0.48;80.50
75867;BME280;64513;56.258;43.980;2022-11-04T01:36:29;99537.66;;;0.48;80.94
75867;BME280;64513;56.258;43.980;2022-11-04T01:38:55;99542.00;;;0.54;80.87
75867;BME280;64513;56.258;43.980;2022-11-04T01:41:30;99545.03;;;0.51;80.88
75867;BME280;64513;56.258;43.980;2022-11-04T01:43:59;99542.84;;;0.48;80.89
75867;BME280;64513;56.258;43.980;2022-11-04T01:46:46;99553.25;;;0.29;81.09
75867;BME280;64513;56.258;43.980;2022-11-04T01:49:35;99553.97;;;0.37;80.73
75867;BME280;64513;56.258;43.980;2022-11-04T01:52:06;99550.38;;;0.38;80.61
75867;BME280;64513;56.258;43.980;2022-11-04T01:54:34;99546.03;;;0.31;80.45
75867;BME280;64513;56.258;43.980;2022-11-04T01:57:02;99554.41;;;0.33;80.03
75867;BME280;64513;56.258;43.980;2022-11-04T01:59:34;99549.66;;;0.30;80.32
75867;BME280;64513;56.258;43.980;2022-11-04T02:02:00;99554.06;;;0.30;80.08
75867;BME280;64513;56.258;43.980;2022-11-04T02:04:26;99552.81;;;0.32;79.80
75867;BME280;64513;56.258;43.980;2022-11-04T02:06:56;99549.19;;;0.33;79.69
75867;BME280;64513;56.258;43.980;2022-11-04T02:09:24;99550.38;;;0.38;79.54
75867;BME280;64513;56.258;43.980;2022-11-04T02:11:50;99556.75;;;0.42;79.46
75867;BME280;64513;56.258;43.980;2022-11-04T02:14:16;99557.16;;;0.39;79.59
75867;BME280;64513;56.258;43.980;2022-11-04T02:16:43;99558.59;;;0.34;79.67
75867;BME280;64513;56.258;43.980;2022-11-04T02:30:47;99551.78;;;0.15;79.92
75867;BME280;64513;56.258;43.980;2022-11-04T02:33:20;99547.81;;;0.13;80.14
75867;BME280;64513;56.258;43.980;2022-11-04T02:36:34;99549.41;;;0.14;80.16
75867;BME280;64513;56.258;43.980;2022-11-04T02:38:56;99550.53;;;0.18;79.77
75867;BME280;64513;56.258;43.980;2022-11-04T02:41:37;99549.19;;;0.15;79.83
75867;BME280;64513;56.258;43.980;2022-11-04T02:44:15;99546.50;;;0.22;79.98
75867;BME280;64513;56.258;43.980;2022-11-04T02:49:39;99554.84;;;0.30;79.91
75867;BME280;64513;56.258;43.980;2022-11-04T02:52:11;99553.84;;;0.31;79.88
75867;BME280;64513;56.258;43.980;2022-11-04T02:54:49;99554.41;;;0.33;79.07
75867;BME280;64513;56.258;43.980;2022-11-04T02:57:29;99558.75;;;0.40;79.26
75867;BME280;64513;56.258;43.980;2022-11-04T03:00:03;99556.75;;;0.42;79.39
75867;BME280;64513;56.258;43.980;2022-11-04T03:02:50;99566.56;;;0.40;79.42
75867;BME280;64513;56.258;43.980;2022-11-04T03:05:21;99556.44;;;0.31;79.74
75867;BME280;64513;56.258;43.980;2022-11-04T03:07:50;99564.47;;;0.30;79.45
75867;BME280;64513;56.258;43.980;2022-11-04T03:10:27;99569.16;;;0.40;79.16
75867;BME280;64513;56.258;43.980;2022-11-04T03:13:01;99569.91;;;0.47;78.69
75867;BME280;64513;56.258;43.980;2022-11-04T03:15:32;99565.50;;;0.47;78.64
75867;BME280;64513;56.258;43.980;2022-11-04T03:18:04;99564.25;;;0.50;78.96
75867;BME280;64513;56.258;43.980;2022-11-04T03:20:34;99563.56;;;0.61;78.85
75867;BME280;64513;56.258;43.980;2022-11-04T03:23:02;99565.00;;;0.57;78.73
75867;BME280;64513;56.258;43.980;2022-11-04T03:25:32;99566.38;;;0.59;78.20
75867;BME280;64513;56.258;43.980;2022-11-04T03:28:25;99569.25;;;0.69;77.77
75867;BME280;64513;56.258;43.980;2022-11-04T03:30:55;99562.25;;;0.70;78.25
75867;BME280;64513;56.258;43.980;2022-11-04T03:36:03;99570.19;;;0.57;77.93
75867;BME280;64513;56.258;43.980;2022-11-04T03:38:29;99568.03;;;0.54;77.43
75867;BME280;64513;56.258;43.980;2022-11-04T03:40:56;99565.00;;;0.57;78.28
75867;BME280;64513;56.258;43.980;2022-11-04T03:43:25;99573.50;;;0.64;78.23
75867;BME280;64513;56.258;43.980;2022-11-04T03:45:52;99576.91;;;0.64;78.10
75867;BME280;64513;56.258;43.980;2022-11-04T03:48:18;99579.81;;;0.75;77.99
75867;BME280;64513;56.258;43.980;2022-11-04T03:50:45;99577.72;;;0.65;77.87
75867;BME280;64513;56.258;43.980;2022-11-04T03:53:12;99574.03;;;0.73;77.94
75867;BME280;64513;56.258;43.980;2022-11-04T03:56:03;99576.13;;;0.64;77.88
75867;BME280;64513;56.258;43.980;2022-11-04T04:01:32;99576.34;;;0.62;77.49
75867;BME280;64513;56.258;43.980;2022-11-04T04:04:11;99580.22;;;0.53;77.61
75867;BME280;64513;56.258;43.980;2022-11-04T04:06:40;99574.97;;;0.60;77.51
75867;BME280;64513;56.258;43.980;2022-11-04T04:09:35;99581.44;;;0.51;77.96
75867;BME280;64513;56.258;43.980;2022-11-04T04:12:12;99575.97;;;0.41;78.40
75867;BME280;64513;56.258;43.980;2022-11-04T04:14:44;99586.19;;;0.35;78.40
75867;BME280;64513;56.258;43.980;2022-11-04T04:20:03;99584.81;;;0.33;78.66
75867;BME280;64513;56.258;43.980;2022-11-04T04:22:42;99584.31;;;0.24;78.65
75867;BME280;64513;56.258;43.980;2022-11-04T04:25:11;99587.50;;;0.26;78.57
75867;BME280;64513;56.258;43.980;2022-11-04T04:27:38;99580.09;;;0.23;78.50
75867;BME280;64513;56.258;43.980;2022-11-04T04:30:08;99584.47;;;0.29;78.34
75867;BME280;64513;56.258;43.980;2022-11-04T04:32:41;99584.00;;;0.32;78.41
75867;BME280;64513;56.258;43.980;2022-11-04T04:35:08;99586.09;;;0.24;78.50
75867;BME280;64513;56.258;43.980;2022-11-04T04:37:34;99591.31;;;0.24;78.60
75867;BME280;64513;56.258;43.980;2022-11-04T04:39:59;99584.22;;;0.13;78.66
75867;BME280;64513;56.258;43.980;2022-11-04T04:42:30;99589.75;;;0.16;78.70
75867;BME280;64513;56.258;43.980;2022-11-04T04:44:56;99585.94;;;0.19;78.89
75867;BME280;64513;56.258;43.980;2022-11-04T04:47:23;99595.28;;;0.26;78.85
75867;BME280;64513;56.258;43.980;2022-11-04T04:49:50;99587.19;;;0.34;78.76
75867;BME280;64513;56.258;43.980;2022-11-04T04:52:16;99593.19;;;0.35;79.02
75867;BME280;64513;56.258;43.980;2022-11-04T04:54:42;99600.78;;;0.37;78.51
75867;BME280;64513;56.258;43.980;2022-11-04T04:57:08;99595.38;;;0.38;78.08
75867;BME280;64513;56.258;43.980;2022-11-04T04:59:33;99605.38;;;0.41;78.14
75867;BME280;64513;56.258;43.980;2022-11-04T05:01:58;99599.19;;;0.35;78.08
75867;BME280;64513;56.258;43.980;2022-11-04T05:04:24;99607.59;;;0.38;77.75
75867;BME280;64513;56.258;43.980;2022-11-04T05:06:49;99605.16;;;0.43;77.83
75867;BME280;64513;56.258;43.980;2022-11-04T05:09:15;99600.88;;;0.48;77.84
75867;BME280;64513;56.258;43.980;2022-11-04T05:11:40;99600.78;;;0.61;78.21
75867;BME280;64513;56.258;43.980;2022-11-04T05:14:06;99609.50;;;0.67;77.02
75867;BME280;64513;56.258;43.980;2022-11-04T05:16:31;99613.09;;;0.48;76.80
75867;BME280;64513;56.258;43.980;2022-11-04T05:18:57;99611.41;;;0.35;77.43
75867;BME280;64513;56.258;43.980;2022-11-04T05:21:22;99618.19;;;0.36;77.25
75867;BME280;64513;56.258;43.980;2022-11-04T05:23:48;99608.00;;;0.34;77.67
75867;BME280;64513;56.258;43.980;2022-11-04T05:26:13;99622.03;;;0.33;77.77
75867;BME280;64513;56.258;43.980;2022-11-04T05:28:38;99612.78;;;0.38;77.77
75867;BME280;64513;56.258;43.980;2022-11-04T05:31:05;99612.38;;;0.41;77.71
75867;BME280;64513;56.258;43.980;2022-11-04T05:33:31;99612.78;;;0.38;78.10
75867;BME280;64513;56.258;43.980;2022-11-04T05:36:14;99622.19;;;0.39;78.13
75867;BME280;64513;56.258;43.980;2022-11-04T05:38:40;99622.59;;;0.35;78.25
75867;BME280;64513;56.258;43.980;2022-11-04T05:41:07;99622.59;;;0.35;78.62
75867;BME280;64513;56.258;43.980;2022-11-04T05:43:34;99621.47;;;0.31;78.27
75867;BME280;64513;56.258;43.980;2022-11-04T05:46:00;99627.09;;;0.28;78.38
75867;BME280;64513;56.258;43.980;2022-11-04T05:48:25;99619.28;;;0.28;78.53
75867;BME280;64513;56.258;43.980;2022-11-04T05:50:51;99621.97;;;0.40;78.17
75867;BME280;64513;56.258;43.980;2022-11-04T05:53:17;99620.59;;;0.38;78.55
75867;BME280;64513;56.258;43.980;2022-11-04T05:55:42;99623.94;;;0.45;78.12
75867;BME280;64513;56.258;43.980;2022-11-04T05:58:08;99623.88;;;0.51;78.25
75867;BME280;64513;56.258;43.980;2022-11-04T06:00:34;99622.34;;;0.44;78.45
75867;BME280;64513;56.258;43.980;2022-11-04T06:03:00;99627.94;;;0.47;78.39
75867;BME280;64513;56.258;43.980;2022-11-04T06:05:26;99624.28;;;0.48;78.63
75867;BME280;64513;56.258;43.980;2022-11-04T06:07:52;99628.16;;;0.46;78.52
75867;BME280;64513;56.258;43.980;2022-11-04T06:10:17;99626.25;;;0.53;78.69
75867;BME280;64513;56.258;43.980;2022-11-04T06:12:43;99614.06;;;0.53;78.51
75867;BME280;64513;56.258;43.980;2022-11-04T06:15:09;99624.66;;;0.52;78.32
75867;BME280;64513;56.258;43.980;2022-11-04T06:17:34;99624.41;;;0.60;78.32
75867;BME280;64513;56.258;43.980;2022-11-04T06:20:00;99619.56;;;0.63;78.22
75867;BME280;64513;56.258;43.980;2022-11-04T06:22:25;99623.19;;;0.81;78.00
75867;BME280;64513;56.258;43.980;2022-11-04T06:24:51;99627.59;;;0.80;77.89
75867;BME280;64513;56.258;43.980;2022-11-04T06:27:17;99629.31;;;0.68;77.99
75867;BME280;64513;56.258;43.980;2022-11-04T06:29:42;99629.28;;;0.75;77.95
75867;BME280;64513;56.258;43.980;2022-11-04T06:32:13;99628.06;;;0.77;77.84
75867;BME280;64513;56.258;43.980;2022-11-04T06:34:39;99632.47;;;0.77;78.04
75867;BME280;64513;56.258;43.980;2022-11-04T06:37:04;99628.34;;;0.87;77.65
75867;BME280;64513;56.258;43.980;2022-11-04T06:39:30;99630.78;;;0.82;77.74
75867;BME280;64513;56.258;43.980;2022-11-04T06:41:55;99637.66;;;0.77;77.57
75867;BME280;64513;56.258;43.980;2022-11-04T06:44:21;99631.06;;;0.74;78.03
75867;BME280;64513;56.258;43.980;2022-11-04T06:46:46;99642.00;;;0.83;77.87
75867;BME280;64513;56.258;43.980;2022-11-04T06:49:18;99638.00;;;0.80;78.01
75867;BME280;64513;56.258;43.980;2022-11-04T06:51:44;99635.69;;;0.72;78.04
75867;BME280;64513;56.258;43.980;2022-11-04T06:54:09;99635.19;;;0.82;78.21
75867;BME280;64513;56.258;43.980;2022-11-04T06:56:35;99638.91;;;0.92;78.19
75867;BME280;64513;56.258;43.980;2022-11-04T06:59:02;99646.16;;;1.09;78.19
75867;BME280;64513;56.258;43.980;2022-11-04T07:01:33;99643.66;;;0.95;77.34
75867;BME280;64513;56.258;43.980;2022-11-04T07:04:00;99644.09;;;1.11;77.31
75867;BME280;64513;56.258;43.980;2022-11-04T07:06:27;99647.00;;;1.21;77.36
75867;BME280;64513;56.258;43.980;2022-11-04T07:08:56;99655.75;;;1.26;76.98
75867;BME280;64513;56.258;43.980;2022-11-04T07:11:24;99649.63;;;1.21;76.84
75867;BME280;64513;56.258;43.980;2022-11-04T07:13:50;99652.22;;;1.21;76.81
75867;BME280;64513;56.258;43.980;2022-11-04T07:16:16;99654.81;;;1.21;76.84
75867;BME280;64513;56.258;43.980;2022-11-04T07:18:41;99654.38;;;1.24;76.85
75867;BME280;64513;56.258;43.980;2022-11-04T07:21:07;99651.84;;;1.17;76.62
75867;BME280;64513;56.258;43.980;2022-11-04T07:23:33;99653.66;;;1.17;76.61
75867;BME280;64513;56.258;43.980;2022-11-04T07:26:04;99656.00;;;1.25;76.64
75867;BME280;64513;56.258;43.980;2022-11-04T07:28:30;99654.66;;;1.34;76.46
75867;BME280;64513;56.258;43.980;2022-11-04T07:31:03;99654.50;;;1.47;75.81
75867;BME280;64513;56.258;43.980;2022-11-04T07:33:29;99650.63;;;1.38;76.17
75867;BME280;64513;56.258;43.980;2022-11-04T07:35:55;99655.00;;;1.56;76.08
75867;BME280;64513;56.258;43.980;2022-11-04T07:38:21;99651.31;;;1.45;76.09
75867;BME280;64513;56.258;43.980;2022-11-04T07:40:47;99650.81;;;1.55;75.85
75867;BME280;64513;56.258;43.980;2022-11-04T07:43:13;99657.63;;;1.56;76.22
75867;BME280;64513;56.258;43.980;2022-11-04T07:45:39;99663.53;;;1.63;76.12
75867;BME280;64513;56.258;43.980;2022-11-04T07:48:05;99652.31;;;1.62;75.63
75867;BME280;64513;56.258;43.980;2022-11-04T07:50:33;99651.91;;;1.47;75.96
75867;BME280;64513;56.258;43.980;2022-11-04T07:52:59;99659.72;;;1.47;75.39
75867;BME280;64513;56.258;43.980;2022-11-04T07:55:25;99659.47;;;1.67;74.97
75867;BME280;64513;56.258;43.980;2022-11-04T07:57:52;99660.56;;;1.59;74.88
75867;BME280;64513;56.258;43.980;2022-11-04T08:00:18;99659.09;;;1.63;75.12
75867;BME280;64513;56.258;43.980;2022-11-04T08:02:44;99654.78;;;1.57;74.96
75867;BME280;64513;56.258;43.980;2022-11-04T08:05:09;99664.34;;;1.75;74.39
75867;BME280;64513;56.258;43.980;2022-11-04T08:07:35;99657.34;;;1.75;74.55
75867;BME280;64513;56.258;43.980;2022-11-04T08:10:00;99660.09;;;1.81;74.81
75867;BME280;64513;56.258;43.980;2022-11-04T08:12:26;99656.66;;;1.50;74.93
75867;BME280;64513;56.258;43.980;2022-11-04T08:14:51;99654.72;;;1.46;74.57
75867;BME280;64513;56.258;43.980;2022-11-04T08:17:17;99658.84;;;1.53;74.82
75867;BME280;64513;56.258;43.980;2022-11-04T08:19:42;99658.13;;;1.46;74.91
75867;BME280;64513;56.258;43.980;2022-11-04T08:22:08;99657.25;;;1.52;74.96
75867;BME280;64513;56.258;43.980;2022-11-04T08:24:33;99650.84;;;1.66;74.99
75867;BME280;64513;56.258;43.980;2022-11-04T08:26:59;99653.81;;;1.70;74.24
75867;BME280;64513;56.258;43.980;2022-11-04T08:29:24;99655.06;;;1.67;73.84
75867;BME280;64513;56.258;43.980;2022-11-04T08:31:50;99650.19;;;1.71;74.03
75867;BME280;64513;56.258;43.980;2022-11-04T08:34:15;99650.63;;;1.68;74.33
75867;BME280;64513;56.258;43.980;2022-11-04T08:36:41;99653.31;;;1.61;74.75
75867;BME280;64513;56.258;43.980;2022-11-04T08:39:07;99651.06;;;1.65;74.43
75867;BME280;64513;56.258;43.980;2022-11-04T08:41:34;99650.34;;;1.58;74.68
75867;BME280;64513;56.258;43.980;2022-11-04T08:43:59;99649.41;;;1.70;74.25
75867;BME280;64513;56.258;43.980;2022-11-04T08:46:28;99654.16;;;1.73;74.46
75867;BME280;64513;56.258;43.980;2022-11-04T08:48:54;99655.19;;;1.72;74.34
75867;BME280;64513;56.258;43.980;2022-11-04T08:51:22;99659.38;;;1.73;73.33
75867;BME280;64513;56.258;43.980;2022-11-04T08:53:49;99658.59;;;1.73;73.63
75867;BME280;64513;56.258;43.980;2022-11-04T08:56:23;99658.09;;;1.64;73.83
75867;BME280;64513;56.258;43.980;2022-11-04T08:58:49;99658.41;;;1.56;73.79
75867;BME280;64513;56.258;43.980;2022-11-04T09:01:15;99665.47;;;1.67;73.75
75867;BME280;64513;56.258;43.980;2022-11-04T09:03:41;99669.31;;;1.65;73.81
75867;BME280;64513;56.258;43.980;2022-11-04T09:06:10;99664.56;;;1.73;73.97
75867;BME280;64513;56.258;43.980;2022-11-04T09:08:36;99675.09;;;1.67;74.61
75867;BME280;64513;56.258;43.980;2022-11-04T09:11:05;99668.38;;;1.59;74.59
75867;BME280;64513;56.258;43.980;2022-11-04T09:13:31;99670.69;;;1.67;74.21
75867;BME280;64513;56.258;43.980;2022-11-04T09:15:56;99676.06;;;1.54;74.54
75867;BME280;64513;56.258;43.980;2022-11-04T09:18:23;99669.63;;;1.57;74.36
75867;BME280;64513;56.258;43.980;2022-11-04T09:20:48;99669.84;;;1.55;73.05
75867;BME280;64513;56.258;43.980;2022-11-04T09:23:14;99673.59;;;1.59;72.64
75867;BME280;64513;56.258;43.980;2022-11-04T09:25:39;99672.88;;;1.52;72.49
75867;BME280;64513;56.258;43.980;2022-11-04T09:28:05;99676.78;;;1.61;71.74
75867;BME280;64513;56.258;43.980;2022-11-04T09:30:31;99671.72;;;1.48;72.00
75867;BME280;64513;56.258;43.980;2022-11-04T09:32:56;99671.16;;;1.46;72.43
75867;BME280;64513;56.258;43.980;2022-11-04T09:35:22;99680.34;;;1.49;72.54
75867;BME280;64513;56.258;43.980;2022-11-04T09:37:47;99675.34;;;1.47;72.44
75867;BME280;64513;56.258;43.980;2022-11-04T09:40:16;99678.69;;;1.54;72.40
75867;BME280;64513;56.258;43.980;2022-11-04T09:45:30;99668.94;;;1.61;71.85
75867;BME280;64513;56.258;43.980;2022-11-04T09:48:06;99683.56;;;1.62;71.96
75867;BME280;64513;56.258;43.980;2022-11-04T09:50:46;99668.88;;;1.68;71.86
75867;BME280;64513;56.258;43.980;2022-11-04T09:53:23;99673.25;;;1.86;71.43
75867;BME280;64513;56.258;43.980;2022-11-04T09:56:02;99669.03;;;1.73;70.89
75867;BME280;64513;56.258;43.980;2022-11-04T09:58:33;99666.16;;;1.74;70.86
75867;BME280;64513;56.258;43.980;2022-11-04T10:01:09;99670.16;;;1.77;70.29
75867;BME280;64513;56.258;43.980;2022-11-04T10:04:08;99668.75;;;1.63;70.44
75867;BME280;64513;56.258;43.980;2022-11-04T10:18:13;99668.78;;;1.74;70.48
75867;BME280;64513;56.258;43.980;2022-11-04T10:20:51;99667.75;;;1.75;70.20
75867;BME280;64513;56.258;43.980;2022-11-04T10:23:27;99676.59;;;1.74;70.17
75867;BME280;64513;56.258;43.980;2022-11-04T10:26:17;99672.53;;;1.79;71.14
75867;BME280;64513;56.258;43.980;2022-11-04T10:28:49;99670.38;;;1.75;70.44
75867;BME280;64513;56.258;43.980;2022-11-04T10:31:17;99683.25;;;1.89;70.68
75867;BME280;64513;56.258;43.980;2022-11-04T10:33:52;99677.13;;;1.95;71.16
75867;BME280;64513;56.258;43.980;2022-11-04T10:36:19;99685.19;;;1.93;71.49
75867;BME280;64513;56.258;43.980;2022-11-04T10:38:51;99679.31;;;1.98;70.73
75867;BME280;64513;56.258;43.980;2022-11-04T10:44:23;99686.88;;;1.88;71.32
75867;BME280;64513;56.258;43.980;2022-11-04T10:47:13;99686.88;;;1.88;70.82
75867;BME280;64513;56.258;43.980;2022-11-04T10:49:56;99682.72;;;1.98;71.32
75867;BME280;64513;56.258;43.980;2022-11-04T10:52:23;99684.31;;;1.69;72.34
75867;BME280;64513;56.258;43.980;2022-11-04T10:54:49;99680.59;;;1.77;72.03
75867;BME280;64513;56.258;43.980;2022-11-04T10:57:23;99683.34;;;1.82;71.94
75867;BME280;64513;56.258;43.980;2022-11-04T10:59:53;99683.88;;;1.72;70.77
75867;BME280;64513;56.258;43.980;2022-11-04T11:07:44;99691.97;;;1.64;70.95
75867;BME280;64513;56.258;43.980;2022-11-04T11:10:23;99689.78;;;1.80;70.08
75867;BME280;64513;56.258;43.980;2022-11-04T11:13:04;99694.50;;;1.71;70.43
75867;BME280;64513;56.258;43.980;2022-11-04T11:15:36;99695.75;;;1.68;70.48
75867;BME280;64513;56.258;43.980;2022-11-04T11:20:30;99696.38;;;1.82;70.23
75867;BME280;64513;56.258;43.980;2022-11-04T11:22:56;99691.72;;;1.84;71.21
75867;BME280;64513;56.258;43.980;2022-11-04T11:25:32;99687.78;;;1.93;71.45
75867;BME280;64513;56.258;43.980;2022-11-04T11:28:01;99691.34;;;1.99;71.15
75867;BME280;64513;56.258;43.980;2022-11-04T11:30:30;99695.72;;;1.87;72.08
75867;BME280;64513;56.258;43.980;2022-11-04T11:38:24;99691.41;;;1.44;75.08
75867;BME280;64513;56.258;43.980;2022-11-04T11:40:51;99686.34;;;1.31;75.38
75867;BME280;64513;56.258;43.980;2022-11-04T11:43:23;99683.63;;;1.26;75.48
75867;BME280;64513;56.258;43.980;2022-11-04T11:45:50;99690.97;;;1.11;76.54
75867;BME280;64513;56.258;43.980;2022-11-04T11:48:30;99689.41;;;1.10;76.49
75867;BME280;64513;56.258;43.980;2022-11-04T11:50:57;99699.25;;;1.08;76.25
75867;BME280;64513;56.258;43.980;2022-11-04T11:53:22;99702.94;;;1.18;76.15
75867;BME280;64513;56.258;43.980;2022-11-04T11:59:00;99703.94;;;1.17;74.78
75867;BME280;64513;56.258;43.980;2022-11-04T12:04:33;99703.56;;;1.14;74.82
75867;BME280;64513;56.258;43.980;2022-11-04T12:12:57;99709.34;;;1.16;74.28
75867;BME280;64513;56.258;43.980;2022-11-04T12:18:44;99711.56;;;1.37;74.09
75867;BME280;64513;56.258;43.980;2022-11-04T12:21:17;99721.66;;;1.45;74.22
75867;BME280;64513;56.258;43.980;2022-11-04T12:23:52;99726.75;;;1.40;74.73
75867;BME280;64513;56.258;43.980;2022-11-04T12:32:26;99728.03;;;1.31;74.44
75867;BME280;64513;56.258;43.980;2022-11-04T12:51:06;99730.72;;;1.42;74.03
75867;BME280;64513;56.258;43.980;2022-11-04T12:53:56;99737.19;;;1.40;74.40
75867;BME280;64513;56.258;43.980;2022-11-04T12:56:37;99735.56;;;1.39;74.59
75867;BME280;64513;56.258;43.980;2022-11-04T13:01:51;99733.56;;;1.41;74.59
75867;BME280;64513;56.258;43.980;2022-11-04T13:04:25;99735.13;;;1.42;74.59
75867;BME280;64513;56.258;43.980;2022-11-04T13:06:57;99736.28;;;1.46;74.42
75867;BME280;64513;56.258;43.980;2022-11-04T13:09:41;99740.91;;;1.44;74.60
75867;BME280;64513;56.258;43.980;2022-11-04T13:12:12;99744.53;;;1.43;74.71
75867;BME280;64513;56.258;43.980;2022-11-04T13:15:01;99741.50;;;1.46;74.75
75867;BME280;64513;56.258;43.980;2022-11-04T13:17:32;99741.38;;;1.41;74.71
75867;BME280;64513;56.258;43.980;2022-11-04T13:20:30;99749.03;;;1.36;74.27
75867;BME280;64513;56.258;43.980;2022-11-04T13:23:03;99747.38;;;1.42;74.24
75867;BME280;64513;56.258;43.980;2022-11-04T13:25:39;99751.63;;;1.36;74.52
75867;BME280;64513;56.258;43.980;2022-11-04T13:28:10;99754.81;;;1.38;74.41
75867;BME280;64513;56.258;43.980;2022-11-04T13:30:48;99758.81;;;1.40;74.41
75867;BME280;64513;56.258;43.980;2022-11-04T13:33:54;99763.06;;;1.35;74.55
75867;BME280;64513;56.258;43.980;2022-11-04T13:36:39;99759.03;;;1.39;74.40
75867;BME280;64513;56.258;43.980;2022-11-04T13:39:17;99765.25;;;1.38;74.44
75867;BME280;64513;56.258;43.980;2022-11-04T13:44:36;99757.56;;;1.43;75.09
75867;BME280;64513;56.258;43.980;2022-11-04T13:47:10;99755.03;;;1.36;74.68
75867;BME280;64513;56.258;43.980;2022-11-04T13:49:38;99760.75;;;1.45;74.27
75867;BME280;64513;56.258;43.980;2022-11-04T13:52:08;99760.16;;;1.43;74.02
75867;BME280;64513;56.258;43.980;2022-11-04T13:57:17;99766.91;;;1.32;74.16
75867;BME280;64513;56.258;43.980;2022-11-04T14:02:53;99768.63;;;1.20;73.23
75867;BME280;64513;56.258;43.980;2022-11-04T14:18:53;99780.75;;;1.08;72.15
75867;BME280;64513;56.258;43.980;2022-11-04T14:21:23;99773.66;;;1.15;72.24
75867;BME280;64513;56.258;43.980;2022-11-04T14:23:52;99774.63;;;1.21;72.24
75867;BME280;64513;56.258;43.980;2022-11-04T14:26:25;99781.44;;;1.22;72.15
75867;BME280;64513;56.258;43.980;2022-11-04T14:29:14;99779.47;;;1.17;72.51
75867;BME280;64513;56.258;43.980;2022-11-04T14:31:44;99783.75;;;1.30;72.04
75867;BME280;64513;56.258;43.980;2022-11-04T14:34:33;99787.44;;;1.22;72.08
75867;BME280;64513;56.258;43.980;2022-11-04T14:37:14;99787.19;;;1.05;72.49
75867;BME280;64513;56.258;43.980;2022-11-04T14:39:44;99793.56;;;1.10;72.51
75867;BME280;64513;56.258;43.980;2022-11-04T14:42:13;99790.38;;;1.08;73.95
75867;BME280;64513;56.258;43.980;2022-11-04T14:44:59;99795.94;;;0.86;74.93
75867;BME280;64513;56.258;43.980;2022-11-04T14:47:27;99795.53;;;0.89;74.98
75867;BME280;64513;56.258;43.980;2022-11-04T14:50:06;99795.25;;;0.97;75.08
75867;BME280;64513;56.258;43.980;2022-11-04T14:57:37;99799.25;;;1.00;75.72
75867;BME280;64513;56.258;43.980;2022-11-04T15:02:44;99800.91;;;0.94;75.68
75867;BME280;64513;56.258;43.980;2022-11-04T15:05:21;99806.53;;;0.91;75.98
75867;BME280;64513;56.258;43.980;2022-11-04T15:07:48;99806.13;;;0.94;75.93
75867;BME280;64513;56.258;43.980;2022-11-04T15:10:22;99808.84;;;0.99;76.13
75867;BME280;64513;56.258;43.980;2022-11-04T15:12:50;99814.06;;;0.99;76.04
75867;BME280;64513;56.258;43.980;2022-11-04T15:15:30;99818.09;;;0.95;75.99
75867;BME280;64513;56.258;43.980;2022-11-04T15:18:00;99821.63;;;1.08;75.88